sensor_id;sensor_type;location;lat;lon;timestamp;P1;durP1;ratioP1;P2;durP2;ratioP2
76856;SDS011;66179;44.686;37.628;2023-03-03T00:00:42;25.58;;;11.30;;
76856;SDS011;66179;44.686;37.628;2023-03-03T00:03:10;25.83;;;10.70;;
76856;SDS011;66179;44.686;37.628;2023-03-03T00:05:40;25.40;;;11.60;;
76856;SDS011;66179;44.686;37.628;2023-03-03T00:08:07;25.48;;;11.18;;
76856;SDS011;66179;44.686;37.628;2023-03-03T00:10:35;24.63;;;10.95;;
76856;SDS011;66179;44.686;37.628;2023-03-03T00:13:03;25.35;;;10.98;;
76856;SDS011;66179;44.686;37.628;2023-03-03T00:15:31;24.00;;;11.03;;
76856;SDS011;66179;44.686;37.628;2023-03-03T00:17:58;26.63;;;10.95;;
76856;SDS011;66179;44.686;37.628;2023-03-03T00:20:35;25.20;;;11.70;;
76856;SDS011;66179;44.686;37.628;2023-03-03T00:25:44;24.98;;;10.93;;
76856;SDS011;66179;44.686;37.628;2023-03-03T00:34:24;23.67;;;10.85;;
76856;SDS011;66179;44.686;37.628;2023-03-03T00:36:53;21.33;;;10.55;;
76856;SDS011;66179;44.686;37.628;2023-03-03T00:39:28;23.60;;;11.02;;
76856;SDS011;66179;44.686;37.628;2023-03-03T00:41:58;23.47;;;10.23;;
76856;SDS011;66179;44.686;37.628;2023-03-03T00:44:38;24.80;;;11.13;;
76856;SDS011;66179;44.686;37.628;2023-03-03T00:47:24;21.63;;;9.95;;
76856;SDS011;66179;44.686;37.628;2023-03-03T00:52:37;23.27;;;9.77;;
76856;SDS011;66179;44.686;37.628;2023-03-03T00:55:06;24.63;;;10.47;;
76856;SDS011;66179;44.686;37.628;2023-03-03T00:57:33;24.63;;;10.75;;
76856;SDS011;66179;44.686;37.628;2023-03-03T01:00:00;23.45;;;10.25;;
76856;SDS011;66179;44.686;37.628;2023-03-03T01:02:26;24.02;;;10.85;;
76856;SDS011;66179;44.686;37.628;2023-03-03T01:04:53;23.08;;;10.88;;
76856;SDS011;66179;44.686;37.628;2023-03-03T01:07:22;22.57;;;10.57;;
76856;SDS011;66179;44.686;37.628;2023-03-03T01:09:49;25.08;;;11.32;;
76856;SDS011;66179;44.686;37.628;2023-03-03T01:12:15;28.55;;;13.52;;
76856;SDS011;66179;44.686;37.628;2023-03-03T01:14:42;26.08;;;11.60;;
76856;SDS011;66179;44.686;37.628;2023-03-03T01:17:10;30.33;;;12.98;;
76856;SDS011;66179;44.686;37.628;2023-03-03T01:19:36;26.80;;;11.87;;
76856;SDS011;66179;44.686;37.628;2023-03-03T01:22:03;25.30;;;12.23;;
76856;SDS011;66179;44.686;37.628;2023-03-03T01:24:29;28.20;;;12.48;;
76856;SDS011;66179;44.686;37.628;2023-03-03T01:26:55;27.35;;;11.35;;
76856;SDS011;66179;44.686;37.628;2023-03-03T01:29:22;25.65;;;11.05;;
76856;SDS011;66179;44.686;37.628;2023-03-03T01:31:49;22.83;;;10.83;;
76856;SDS011;66179;44.686;37.628;2023-03-03T01:34:15;23.95;;;10.77;;
76856;SDS011;66179;44.686;37.628;2023-03-03T01:36:41;23.95;;;10.77;;
76856;SDS011;66179;44.686;37.628;2023-03-03T01:39:09;21.65;;;10.93;;
76856;SDS011;66179;44.686;37.628;2023-03-03T01:41:37;21.38;;;10.35;;
76856;SDS011;66179;44.686;37.628;2023-03-03T01:44:04;22.23;;;10.33;;
76856;SDS011;66179;44.686;37.628;2023-03-03T01:49:20;26.10;;;10.50;;
76856;SDS011;66179;44.686;37.628;2023-03-03T01:51:53;25.92;;;11.80;;
76856;SDS011;66179;44.686;37.628;2023-03-03T01:54:30;26.77;;;11.70;;
76856;SDS011;66179;44.686;37.628;2023-03-03T01:57:03;26.53;;;11.67;;
76856;SDS011;66179;44.686;37.628;2023-03-03T01:59:35;26.63;;;11.75;;
76856;SDS011;66179;44.686;37.628;2023-03-03T02:02:06;27.33;;;12.07;;
76856;SDS011;66179;44.686;37.628;2023-03-03T02:04:34;24.92;;;11.52;;
76856;SDS011;66179;44.686;37.628;2023-03-03T02:07:01;28.45;;;10.75;;
76856;SDS011;66179;44.686;37.628;2023-03-03T02:12:11;23.13;;;10.60;;
76856;SDS011;66179;44.686;37.628;2023-03-03T02:14:41;25.77;;;10.77;;
76856;SDS011;66179;44.686;37.628;2023-03-03T02:17:08;23.23;;;10.18;;
76856;SDS011;66179;44.686;37.628;2023-03-03T02:19:38;23.25;;;10.02;;
76856;SDS011;66179;44.686;37.628;2023-03-03T02:22:13;22.97;;;10.47;;
76856;SDS011;66179;44.686;37.628;2023-03-03T02:25:01;25.90;;;10.45;;
76856;SDS011;66179;44.686;37.628;2023-03-03T02:27:30;25.73;;;10.60;;
76856;SDS011;66179;44.686;37.628;2023-03-03T02:30:06;22.98;;;10.55;;
76856;SDS011;66179;44.686;37.628;2023-03-03T02:32:39;22.08;;;10.32;;
76856;SDS011;66179;44.686;37.628;2023-03-03T02:35:26;22.97;;;10.70;;
76856;SDS011;66179;44.686;37.628;2023-03-03T02:37:56;23.25;;;10.00;;
76856;SDS011;66179;44.686;37.628;2023-03-03T02:40:30;23.92;;;10.98;;
76856;SDS011;66179;44.686;37.628;2023-03-03T02:43:01;23.88;;;10.20;;
76856;SDS011;66179;44.686;37.628;2023-03-03T02:45:31;19.85;;;10.18;;
76856;SDS011;66179;44.686;37.628;2023-03-03T02:47:58;23.80;;;9.67;;
76856;SDS011;66179;44.686;37.628;2023-03-03T02:50:24;23.65;;;10.23;;
76856;SDS011;66179;44.686;37.628;2023-03-03T02:52:51;21.13;;;9.40;;
76856;SDS011;66179;44.686;37.628;2023-03-03T02:55:18;20.40;;;9.38;;
76856;SDS011;66179;44.686;37.628;2023-03-03T02:57:44;24.10;;;9.82;;
76856;SDS011;66179;44.686;37.628;2023-03-03T03:00:11;23.40;;;10.53;;
76856;SDS011;66179;44.686;37.628;2023-03-03T03:02:37;28.55;;;10.30;;
76856;SDS011;66179;44.686;37.628;2023-03-03T03:05:05;21.52;;;10.48;;
76856;SDS011;66179;44.686;37.628;2023-03-03T03:07:33;22.92;;;9.70;;
76856;SDS011;66179;44.686;37.628;2023-03-03T03:10:01;22.73;;;10.38;;
76856;SDS011;66179;44.686;37.628;2023-03-03T03:12:31;23.10;;;10.53;;
76856;SDS011;66179;44.686;37.628;2023-03-03T03:15:00;20.80;;;10.23;;
76856;SDS011;66179;44.686;37.628;2023-03-03T03:17:26;19.83;;;9.40;;
76856;SDS011;66179;44.686;37.628;2023-03-03T03:19:53;22.20;;;9.50;;
76856;SDS011;66179;44.686;37.628;2023-03-03T03:22:20;23.30;;;9.67;;
76856;SDS011;66179;44.686;37.628;2023-03-03T03:24:47;20.20;;;9.80;;
76856;SDS011;66179;44.686;37.628;2023-03-03T03:27:15;23.52;;;10.40;;
76856;SDS011;66179;44.686;37.628;2023-03-03T03:29:41;21.27;;;9.45;;
76856;SDS011;66179;44.686;37.628;2023-03-03T03:32:08;22.10;;;10.00;;
76856;SDS011;66179;44.686;37.628;2023-03-03T03:34:34;23.13;;;10.25;;
76856;SDS011;66179;44.686;37.628;2023-03-03T03:37:02;21.52;;;10.32;;
76856;SDS011;66179;44.686;37.628;2023-03-03T03:39:29;21.98;;;10.18;;
76856;SDS011;66179;44.686;37.628;2023-03-03T03:41:56;21.58;;;10.20;;
76856;SDS011;66179;44.686;37.628;2023-03-03T03:44:22;21.43;;;10.53;;
76856;SDS011;66179;44.686;37.628;2023-03-03T03:46:50;23.27;;;10.60;;
76856;SDS011;66179;44.686;37.628;2023-03-03T03:49:17;21.90;;;10.15;;
76856;SDS011;66179;44.686;37.628;2023-03-03T03:51:43;21.48;;;10.50;;
76856;SDS011;66179;44.686;37.628;2023-03-03T03:54:14;23.90;;;9.80;;
76856;SDS011;66179;44.686;37.628;2023-03-03T03:56:41;22.80;;;10.32;;
76856;SDS011;66179;44.686;37.628;2023-03-03T03:59:09;25.90;;;10.65;;
76856;SDS011;66179;44.686;37.628;2023-03-03T04:01:36;24.17;;;10.25;;
76856;SDS011;66179;44.686;37.628;2023-03-03T04:04:03;24.75;;;10.95;;
76856;SDS011;66179;44.686;37.628;2023-03-03T04:06:30;22.83;;;10.37;;
76856;SDS011;66179;44.686;37.628;2023-03-03T04:08:56;20.88;;;10.13;;
76856;SDS011;66179;44.686;37.628;2023-03-03T04:11:24;24.10;;;10.57;;
76856;SDS011;66179;44.686;37.628;2023-03-03T04:13:50;26.35;;;10.73;;
76856;SDS011;66179;44.686;37.628;2023-03-03T04:16:17;23.57;;;10.27;;
76856;SDS011;66179;44.686;37.628;2023-03-03T04:18:45;27.77;;;11.60;;
76856;SDS011;66179;44.686;37.628;2023-03-03T04:21:12;27.80;;;10.70;;
76856;SDS011;66179;44.686;37.628;2023-03-03T04:23:39;26.25;;;10.88;;
76856;SDS011;66179;44.686;37.628;2023-03-03T04:26:06;29.07;;;11.33;;
76856;SDS011;66179;44.686;37.628;2023-03-03T04:28:34;29.92;;;10.98;;
76856;SDS011;66179;44.686;37.628;2023-03-03T04:31:02;25.17;;;10.45;;
76856;SDS011;66179;44.686;37.628;2023-03-03T04:33:31;24.60;;;10.63;;
76856;SDS011;66179;44.686;37.628;2023-03-03T04:35:58;22.97;;;10.27;;
76856;SDS011;66179;44.686;37.628;2023-03-03T04:38:25;25.20;;;9.75;;
76856;SDS011;66179;44.686;37.628;2023-03-03T04:40:54;25.02;;;9.93;;
76856;SDS011;66179;44.686;37.628;2023-03-03T04:43:22;27.48;;;11.20;;
76856;SDS011;66179;44.686;37.628;2023-03-03T04:45:49;23.07;;;10.17;;
76856;SDS011;66179;44.686;37.628;2023-03-03T04:48:16;22.25;;;10.45;;
76856;SDS011;66179;44.686;37.628;2023-03-03T04:50:43;23.58;;;10.18;;
76856;SDS011;66179;44.686;37.628;2023-03-03T04:53:09;23.38;;;9.15;;
76856;SDS011;66179;44.686;37.628;2023-03-03T04:55:36;22.65;;;10.38;;
76856;SDS011;66179;44.686;37.628;2023-03-03T04:58:04;22.30;;;9.88;;
76856;SDS011;66179;44.686;37.628;2023-03-03T05:00:31;23.20;;;10.57;;
76856;SDS011;66179;44.686;37.628;2023-03-03T05:02:59;22.58;;;10.45;;
76856;SDS011;66179;44.686;37.628;2023-03-03T05:05:25;26.73;;;11.00;;
76856;SDS011;66179;44.686;37.628;2023-03-03T05:07:52;23.47;;;10.27;;
76856;SDS011;66179;44.686;37.628;2023-03-03T05:10:19;22.02;;;9.93;;
76856;SDS011;66179;44.686;37.628;2023-03-03T05:12:46;24.38;;;10.05;;
76856;SDS011;66179;44.686;37.628;2023-03-03T05:15:13;24.98;;;10.05;;
76856;SDS011;66179;44.686;37.628;2023-03-03T05:17:39;29.83;;;11.97;;
76856;SDS011;66179;44.686;37.628;2023-03-03T05:20:06;25.60;;;10.85;;
76856;SDS011;66179;44.686;37.628;2023-03-03T05:22:34;27.02;;;11.55;;
76856;SDS011;66179;44.686;37.628;2023-03-03T05:25:01;27.33;;;11.90;;
76856;SDS011;66179;44.686;37.628;2023-03-03T05:27:27;50.72;;;21.98;;
76856;SDS011;66179;44.686;37.628;2023-03-03T05:29:54;113.80;;;35.20;;
76856;SDS011;66179;44.686;37.628;2023-03-03T05:32:20;123.10;;;40.13;;
76856;SDS011;66179;44.686;37.628;2023-03-03T05:34:47;39.40;;;15.65;;
76856;SDS011;66179;44.686;37.628;2023-03-03T05:37:14;28.40;;;12.68;;
76856;SDS011;66179;44.686;37.628;2023-03-03T05:39:41;31.30;;;13.25;;
76856;SDS011;66179;44.686;37.628;2023-03-03T05:42:10;26.23;;;12.23;;
76856;SDS011;66179;44.686;37.628;2023-03-03T05:44:40;30.75;;;14.57;;
76856;SDS011;66179;44.686;37.628;2023-03-03T05:47:07;52.03;;;22.20;;
76856;SDS011;66179;44.686;37.628;2023-03-03T05:49:34;71.85;;;33.30;;
76856;SDS011;66179;44.686;37.628;2023-03-03T05:52:01;31.65;;;14.90;;
76856;SDS011;66179;44.686;37.628;2023-03-03T05:54:27;29.50;;;12.80;;
76856;SDS011;66179;44.686;37.628;2023-03-03T05:56:54;35.63;;;13.63;;
76856;SDS011;66179;44.686;37.628;2023-03-03T05:59:22;33.58;;;12.95;;
76856;SDS011;66179;44.686;37.628;2023-03-03T06:01:49;32.20;;;12.98;;
76856;SDS011;66179;44.686;37.628;2023-03-03T06:04:16;27.05;;;13.05;;
76856;SDS011;66179;44.686;37.628;2023-03-03T06:06:42;32.83;;;12.63;;
76856;SDS011;66179;44.686;37.628;2023-03-03T06:09:09;31.00;;;12.30;;
76856;SDS011;66179;44.686;37.628;2023-03-03T06:11:35;30.73;;;12.65;;
76856;SDS011;66179;44.686;37.628;2023-03-03T06:14:02;36.28;;;15.95;;
76856;SDS011;66179;44.686;37.628;2023-03-03T06:16:29;29.30;;;12.77;;
76856;SDS011;66179;44.686;37.628;2023-03-03T06:18:55;28.23;;;12.90;;
76856;SDS011;66179;44.686;37.628;2023-03-03T06:21:21;34.70;;;17.95;;
76856;SDS011;66179;44.686;37.628;2023-03-03T06:23:48;27.33;;;12.85;;
76856;SDS011;66179;44.686;37.628;2023-03-03T06:26:15;28.88;;;12.32;;
76856;SDS011;66179;44.686;37.628;2023-03-03T06:28:41;27.70;;;11.80;;
76856;SDS011;66179;44.686;37.628;2023-03-03T06:31:08;24.60;;;11.60;;
76856;SDS011;66179;44.686;37.628;2023-03-03T06:33:34;23.90;;;11.55;;
76856;SDS011;66179;44.686;37.628;2023-03-03T06:36:02;24.48;;;11.70;;
76856;SDS011;66179;44.686;37.628;2023-03-03T06:38:28;24.63;;;11.90;;
76856;SDS011;66179;44.686;37.628;2023-03-03T06:40:55;22.13;;;11.40;;
76856;SDS011;66179;44.686;37.628;2023-03-03T06:43:22;24.27;;;10.47;;
76856;SDS011;66179;44.686;37.628;2023-03-03T06:45:48;23.15;;;11.52;;
76856;SDS011;66179;44.686;37.628;2023-03-03T06:48:15;26.40;;;11.63;;
76856;SDS011;66179;44.686;37.628;2023-03-03T06:50:41;24.25;;;11.40;;
76856;SDS011;66179;44.686;37.628;2023-03-03T06:53:12;24.90;;;11.60;;
76856;SDS011;66179;44.686;37.628;2023-03-03T11:58:29;19.95;;;18.02;;
76856;SDS011;66179;44.686;37.628;2023-03-03T12:03:48;12.37;;;6.27;;
76856;SDS011;66179;44.686;37.628;2023-03-03T12:09:30;11.07;;;6.10;;
76856;SDS011;66179;44.686;37.628;2023-03-03T12:12:11;11.32;;;5.75;;
76856;SDS011;66179;44.686;37.628;2023-03-03T12:22:34;11.23;;;6.30;;
76856;SDS011;66179;44.686;37.628;2023-03-03T12:25:21;11.45;;;6.13;;
76856;SDS011;66179;44.686;37.628;2023-03-03T12:28:17;10.80;;;6.20;;
76856;SDS011;66179;44.686;37.628;2023-03-03T12:39:08;8.88;;;4.93;;
76856;SDS011;66179;44.686;37.628;2023-03-03T12:42:09;10.82;;;5.10;;
76856;SDS011;66179;44.686;37.628;2023-03-03T12:45:00;11.37;;;5.67;;
76856;SDS011;66179;44.686;37.628;2023-03-03T12:55:19;12.00;;;6.10;;
76856;SDS011;66179;44.686;37.628;2023-03-03T12:57:58;11.40;;;5.87;;
76856;SDS011;66179;44.686;37.628;2023-03-03T13:00:57;10.00;;;5.05;;
76856;SDS011;66179;44.686;37.628;2023-03-03T13:03:48;12.55;;;6.13;;
76856;SDS011;66179;44.686;37.628;2023-03-03T13:06:31;13.25;;;6.70;;
76856;SDS011;66179;44.686;37.628;2023-03-03T13:09:13;13.30;;;5.57;;
76856;SDS011;66179;44.686;37.628;2023-03-03T13:11:52;12.70;;;6.00;;
76856;SDS011;66179;44.686;37.628;2023-03-03T13:14:23;10.00;;;5.55;;
76856;SDS011;66179;44.686;37.628;2023-03-03T13:27:30;10.60;;;4.60;;
76856;SDS011;66179;44.686;37.628;2023-03-03T13:30:07;10.65;;;5.45;;
76856;SDS011;66179;44.686;37.628;2023-03-03T13:32:46;11.38;;;6.22;;
76856;SDS011;66179;44.686;37.628;2023-03-03T13:35:28;9.43;;;5.20;;
76856;SDS011;66179;44.686;37.628;2023-03-03T13:38:02;14.17;;;5.73;;
76856;SDS011;66179;44.686;37.628;2023-03-03T13:43:10;10.60;;;5.53;;
76856;SDS011;66179;44.686;37.628;2023-03-03T13:48:23;11.68;;;6.03;;
76856;SDS011;66179;44.686;37.628;2023-03-03T13:51:08;12.53;;;6.50;;
76856;SDS011;66179;44.686;37.628;2023-03-03T13:54:12;11.82;;;5.97;;
76856;SDS011;66179;44.686;37.628;2023-03-03T13:56:53;13.60;;;6.20;;
76856;SDS011;66179;44.686;37.628;2023-03-03T14:05:36;14.17;;;7.07;;
76856;SDS011;66179;44.686;37.628;2023-03-03T14:10:41;15.73;;;7.40;;
76856;SDS011;66179;44.686;37.628;2023-03-03T14:13:18;14.02;;;6.93;;
76856;SDS011;66179;44.686;37.628;2023-03-03T14:16:01;12.63;;;6.55;;
76856;SDS011;66179;44.686;37.628;2023-03-03T14:18:38;13.93;;;7.03;;
76856;SDS011;66179;44.686;37.628;2023-03-03T14:21:15;13.68;;;7.25;;
76856;SDS011;66179;44.686;37.628;2023-03-03T14:23:53;14.95;;;7.80;;
76856;SDS011;66179;44.686;37.628;2023-03-03T14:26:22;15.18;;;7.38;;
76856;SDS011;66179;44.686;37.628;2023-03-03T14:28:49;14.00;;;7.97;;
76856;SDS011;66179;44.686;37.628;2023-03-03T14:31:29;22.30;;;9.50;;
76856;SDS011;66179;44.686;37.628;2023-03-03T14:36:41;16.60;;;7.88;;
76856;SDS011;66179;44.686;37.628;2023-03-03T14:42:03;12.77;;;6.80;;
76856;SDS011;66179;44.686;37.628;2023-03-03T14:44:52;12.67;;;6.60;;
76856;SDS011;66179;44.686;37.628;2023-03-03T14:47:24;12.25;;;6.85;;
76856;SDS011;66179;44.686;37.628;2023-03-03T14:49:53;18.52;;;7.93;;
76856;SDS011;66179;44.686;37.628;2023-03-03T14:52:32;13.73;;;6.47;;
76856;SDS011;66179;44.686;37.628;2023-03-03T14:55:01;14.80;;;6.55;;
76856;SDS011;66179;44.686;37.628;2023-03-03T14:57:56;13.53;;;6.13;;
76856;SDS011;66179;44.686;37.628;2023-03-03T15:00:26;13.35;;;6.00;;
76856;SDS011;66179;44.686;37.628;2023-03-03T15:05:48;14.85;;;6.38;;
76856;SDS011;66179;44.686;37.628;2023-03-03T15:08:23;12.73;;;6.18;;
76856;SDS011;66179;44.686;37.628;2023-03-03T15:11:10;14.60;;;7.90;;
76856;SDS011;66179;44.686;37.628;2023-03-03T15:13:52;14.85;;;7.20;;
76856;SDS011;66179;44.686;37.628;2023-03-03T15:16:30;13.55;;;7.40;;
76856;SDS011;66179;44.686;37.628;2023-03-03T15:21:30;24.92;;;7.50;;
76856;SDS011;66179;44.686;37.628;2023-03-03T15:35:05;17.27;;;8.73;;
76856;SDS011;66179;44.686;37.628;2023-03-03T15:37:52;20.37;;;11.60;;
76856;SDS011;66179;44.686;37.628;2023-03-03T16:02:41;46.90;;;19.38;;
76856;SDS011;66179;44.686;37.628;2023-03-03T16:10:46;123.03;;;40.03;;
76856;SDS011;66179;44.686;37.628;2023-03-03T16:35:13;23.38;;;12.73;;
76856;SDS011;66179;44.686;37.628;2023-03-03T16:40:29;24.25;;;11.68;;
76856;SDS011;66179;44.686;37.628;2023-03-03T16:45:35;36.90;;;16.57;;
76856;SDS011;66179;44.686;37.628;2023-03-03T16:56:26;40.22;;;20.92;;
76856;SDS011;66179;44.686;37.628;2023-03-03T17:02:02;45.17;;;24.25;;
76856;SDS011;66179;44.686;37.628;2023-03-03T17:07:02;44.63;;;19.48;;
76856;SDS011;66179;44.686;37.628;2023-03-03T17:17:00;40.42;;;18.88;;
76856;SDS011;66179;44.686;37.628;2023-03-03T17:33:49;32.97;;;15.63;;
76856;SDS011;66179;44.686;37.628;2023-03-03T17:58:37;39.28;;;19.80;;
76856;SDS011;66179;44.686;37.628;2023-03-03T18:01:24;42.65;;;18.30;;
76856;SDS011;66179;44.686;37.628;2023-03-03T18:04:24;36.42;;;17.17;;
76856;SDS011;66179;44.686;37.628;2023-03-03T18:07:10;42.67;;;19.83;;
76856;SDS011;66179;44.686;37.628;2023-03-03T18:12:28;34.45;;;16.75;;
76856;SDS011;66179;44.686;37.628;2023-03-03T18:23:37;30.25;;;14.52;;
76856;SDS011;66179;44.686;37.628;2023-03-03T18:29:10;24.85;;;12.10;;
76856;SDS011;66179;44.686;37.628;2023-03-03T18:39:39;42.38;;;19.10;;
76856;SDS011;66179;44.686;37.628;2023-03-03T18:42:41;57.53;;;26.65;;
76856;SDS011;66179;44.686;37.628;2023-03-03T18:50:38;58.78;;;25.15;;
76856;SDS011;66179;44.686;37.628;2023-03-03T18:55:58;37.10;;;15.30;;
76856;SDS011;66179;44.686;37.628;2023-03-03T19:06:53;42.50;;;20.52;;
76856;SDS011;66179;44.686;37.628;2023-03-03T19:09:18;40.25;;;20.25;;
76856;SDS011;66179;44.686;37.628;2023-03-03T19:12:09;35.67;;;18.15;;
76856;SDS011;66179;44.686;37.628;2023-03-03T19:14:39;38.27;;;18.70;;
76856;SDS011;66179;44.686;37.628;2023-03-03T19:20:06;35.35;;;18.75;;
76856;SDS011;66179;44.686;37.628;2023-03-03T19:25:19;32.53;;;16.25;;
76856;SDS011;66179;44.686;37.628;2023-03-03T19:35:41;24.13;;;12.88;;
76856;SDS011;66179;44.686;37.628;2023-03-03T19:38:37;26.40;;;14.38;;
76856;SDS011;66179;44.686;37.628;2023-03-03T19:44:05;31.17;;;14.40;;
76856;SDS011;66179;44.686;37.628;2023-03-03T19:54:38;32.93;;;15.03;;
76856;SDS011;66179;44.686;37.628;2023-03-03T20:09:13;37.43;;;16.57;;
76856;SDS011;66179;44.686;37.628;2023-03-03T20:11:54;30.27;;;15.68;;
76856;SDS011;66179;44.686;37.628;2023-03-03T20:17:38;30.92;;;15.38;;
76856;SDS011;66179;44.686;37.628;2023-03-03T20:25:44;23.65;;;11.77;;
76856;SDS011;66179;44.686;37.628;2023-03-03T20:28:38;23.27;;;11.65;;
76856;SDS011;66179;44.686;37.628;2023-03-03T20:42:39;26.67;;;12.88;;
76856;SDS011;66179;44.686;37.628;2023-03-03T21:04:32;16.13;;;7.83;;
76856;SDS011;66179;44.686;37.628;2023-03-03T21:07:01;15.90;;;7.63;;
76856;SDS011;66179;44.686;37.628;2023-03-03T21:09:30;21.27;;;8.85;;
76856;SDS011;66179;44.686;37.628;2023-03-03T21:12:00;18.55;;;8.68;;
76856;SDS011;66179;44.686;37.628;2023-03-03T21:14:31;21.40;;;8.57;;
76856;SDS011;66179;44.686;37.628;2023-03-03T21:17:10;18.60;;;8.13;;
76856;SDS011;66179;44.686;37.628;2023-03-03T21:19:52;19.30;;;8.60;;
76856;SDS011;66179;44.686;37.628;2023-03-03T21:22:19;23.30;;;9.23;;
76856;SDS011;66179;44.686;37.628;2023-03-03T21:27:31;18.77;;;9.30;;
76856;SDS011;66179;44.686;37.628;2023-03-03T21:30:00;25.63;;;9.27;;
76856;SDS011;66179;44.686;37.628;2023-03-03T21:32:48;27.98;;;13.13;;
76856;SDS011;66179;44.686;37.628;2023-03-03T21:35:20;26.75;;;11.52;;
76856;SDS011;66179;44.686;37.628;2023-03-03T21:42:51;38.50;;;18.30;;
76856;SDS011;66179;44.686;37.628;2023-03-03T21:45:18;25.42;;;11.27;;
76856;SDS011;66179;44.686;37.628;2023-03-03T21:47:46;24.73;;;10.80;;
76856;SDS011;66179;44.686;37.628;2023-03-03T21:50:13;35.35;;;16.30;;
76856;SDS011;66179;44.686;37.628;2023-03-03T21:52:40;27.08;;;13.00;;
76856;SDS011;66179;44.686;37.628;2023-03-03T21:55:07;19.20;;;8.80;;
76856;SDS011;66179;44.686;37.628;2023-03-03T21:57:34;20.23;;;9.20;;
76856;SDS011;66179;44.686;37.628;2023-03-03T22:00:01;19.33;;;9.05;;
76856;SDS011;66179;44.686;37.628;2023-03-03T22:02:34;19.08;;;9.10;;
76856;SDS011;66179;44.686;37.628;2023-03-03T22:05:01;21.33;;;9.85;;
76856;SDS011;66179;44.686;37.628;2023-03-03T22:07:29;21.60;;;10.30;;
76856;SDS011;66179;44.686;37.628;2023-03-03T22:09:55;22.45;;;11.18;;
76856;SDS011;66179;44.686;37.628;2023-03-03T22:12:22;26.23;;;11.82;;
76856;SDS011;66179;44.686;37.628;2023-03-03T22:14:49;20.70;;;10.48;;
76856;SDS011;66179;44.686;37.628;2023-03-03T22:17:15;33.75;;;16.48;;
76856;SDS011;66179;44.686;37.628;2023-03-03T22:19:42;25.63;;;12.60;;
76856;SDS011;66179;44.686;37.628;2023-03-03T22:22:08;25.08;;;11.32;;
76856;SDS011;66179;44.686;37.628;2023-03-03T22:24:35;20.55;;;9.80;;
76856;SDS011;66179;44.686;37.628;2023-03-03T22:27:01;19.75;;;8.75;;
76856;SDS011;66179;44.686;37.628;2023-03-03T22:29:28;20.38;;;8.88;;
76856;SDS011;66179;44.686;37.628;2023-03-03T22:31:55;16.83;;;8.03;;
76856;SDS011;66179;44.686;37.628;2023-03-03T22:34:21;18.25;;;7.68;;
76856;SDS011;66179;44.686;37.628;2023-03-03T22:36:48;17.27;;;7.45;;
76856;SDS011;66179;44.686;37.628;2023-03-03T22:39:15;19.45;;;6.95;;
76856;SDS011;66179;44.686;37.628;2023-03-03T22:41:41;17.92;;;7.38;;
76856;SDS011;66179;44.686;37.628;2023-03-03T22:44:08;18.53;;;9.10;;
76856;SDS011;66179;44.686;37.628;2023-03-03T22:46:34;18.35;;;8.25;;
76856;SDS011;66179;44.686;37.628;2023-03-03T22:49:01;18.80;;;7.95;;
76856;SDS011;66179;44.686;37.628;2023-03-03T22:51:27;18.10;;;8.60;;
76856;SDS011;66179;44.686;37.628;2023-03-03T22:53:54;21.95;;;9.73;;
76856;SDS011;66179;44.686;37.628;2023-03-03T22:56:21;23.00;;;10.07;;
76856;SDS011;66179;44.686;37.628;2023-03-03T22:58:47;22.70;;;9.80;;
76856;SDS011;66179;44.686;37.628;2023-03-03T23:01:14;18.63;;;8.60;;
76856;SDS011;66179;44.686;37.628;2023-03-03T23:03:41;17.73;;;7.55;;
76856;SDS011;66179;44.686;37.628;2023-03-03T23:06:07;19.67;;;8.63;;
76856;SDS011;66179;44.686;37.628;2023-03-03T23:08:34;17.17;;;7.60;;
76856;SDS011;66179;44.686;37.628;2023-03-03T23:11:01;16.92;;;7.60;;
76856;SDS011;66179;44.686;37.628;2023-03-03T23:13:28;14.88;;;6.70;;
76856;SDS011;66179;44.686;37.628;2023-03-03T23:15:54;16.73;;;7.20;;
76856;SDS011;66179;44.686;37.628;2023-03-03T23:18:25;15.50;;;6.93;;
76856;SDS011;66179;44.686;37.628;2023-03-03T23:20:53;17.57;;;7.80;;
76856;SDS011;66179;44.686;37.628;2023-03-03T23:23:20;15.77;;;7.13;;
76856;SDS011;66179;44.686;37.628;2023-03-03T23:25:48;14.07;;;5.85;;
76856;SDS011;66179;44.686;37.628;2023-03-03T23:28:15;13.18;;;6.30;;
76856;SDS011;66179;44.686;37.628;2023-03-03T23:30:41;13.85;;;6.07;;
76856;SDS011;66179;44.686;37.628;2023-03-03T23:33:08;13.97;;;5.90;;
76856;SDS011;66179;44.686;37.628;2023-03-03T23:35:35;14.50;;;5.93;;
76856;SDS011;66179;44.686;37.628;2023-03-03T23:38:02;14.57;;;6.20;;
76856;SDS011;66179;44.686;37.628;2023-03-03T23:40:29;17.85;;;6.82;;
76856;SDS011;66179;44.686;37.628;2023-03-03T23:42:55;16.40;;;7.88;;
76856;SDS011;66179;44.686;37.628;2023-03-03T23:45:22;15.47;;;7.17;;
76856;SDS011;66179;44.686;37.628;2023-03-03T23:47:49;17.92;;;7.90;;
76856;SDS011;66179;44.686;37.628;2023-03-03T23:50:16;16.45;;;7.38;;
76856;SDS011;66179;44.686;37.628;2023-03-03T23:52:42;14.18;;;6.70;;
76856;SDS011;66179;44.686;37.628;2023-03-03T23:55:09;15.38;;;6.70;;
76856;SDS011;66179;44.686;37.628;2023-03-03T23:57:36;15.80;;;7.57;;
